sensor_id;sensor_type;location;lat;lon;timestamp;P1;durP1;ratioP1;P2;durP2;ratioP2
69207;SDS011;56321;47.662;8.878;2023-04-10T00:00:01;10.82;;;4.30;;
69207;SDS011;56321;47.662;8.878;2023-04-10T00:02:28;9.73;;;4.50;;
69207;SDS011;56321;47.662;8.878;2023-04-10T00:04:53;10.57;;;4.50;;
69207;SDS011;56321;47.662;8.878;2023-04-10T00:07:18;10.23;;;4.13;;
69207;SDS011;56321;47.662;8.878;2023-04-10T00:09:44;9.73;;;4.27;;
69207;SDS011;56321;47.662;8.878;2023-04-10T00:12:09;9.83;;;3.70;;
69207;SDS011;56321;47.662;8.878;2023-04-10T00:14:38;9.63;;;4.18;;
69207;SDS011;56321;47.662;8.878;2023-04-10T00:17:03;9.33;;;3.90;;
69207;SDS011;56321;47.662;8.878;2023-04-10T00:19:29;10.57;;;4.38;;
69207;SDS011;56321;47.662;8.878;2023-04-10T00:21:54;10.00;;;4.10;;
69207;SDS011;56321;47.662;8.878;2023-04-10T00:24:20;9.60;;;3.90;;
69207;SDS011;56321;47.662;8.878;2023-04-10T00:26:45;10.20;;;3.97;;
69207;SDS011;56321;47.662;8.878;2023-04-10T00:29:11;9.57;;;3.87;;
69207;SDS011;56321;47.662;8.878;2023-04-10T00:31:36;9.40;;;4.03;;
69207;SDS011;56321;47.662;8.878;2023-04-10T00:34:02;9.40;;;3.87;;
69207;SDS011;56321;47.662;8.878;2023-04-10T00:36:27;9.53;;;3.63;;
69207;SDS011;56321;47.662;8.878;2023-04-10T00:38:53;9.30;;;3.65;;
69207;SDS011;56321;47.662;8.878;2023-04-10T00:41:18;9.40;;;4.00;;
69207;SDS011;56321;47.662;8.878;2023-04-10T00:43:43;10.07;;;4.00;;
69207;SDS011;56321;47.662;8.878;2023-04-10T00:46:09;10.60;;;4.10;;
69207;SDS011;56321;47.662;8.878;2023-04-10T00:48:35;9.33;;;3.87;;
69207;SDS011;56321;47.662;8.878;2023-04-10T00:51:01;9.40;;;3.80;;
69207;SDS011;56321;47.662;8.878;2023-04-10T00:53:27;10.07;;;4.35;;
69207;SDS011;56321;47.662;8.878;2023-04-10T00:55:53;10.70;;;4.03;;
69207;SDS011;56321;47.662;8.878;2023-04-10T00:58:19;9.88;;;4.22;;
69207;SDS011;56321;47.662;8.878;2023-04-10T01:00:45;10.03;;;4.30;;
69207;SDS011;56321;47.662;8.878;2023-04-10T01:03:12;9.48;;;4.03;;
69207;SDS011;56321;47.662;8.878;2023-04-10T01:08:37;10.38;;;4.15;;
69207;SDS011;56321;47.662;8.878;2023-04-10T01:17:25;10.02;;;4.22;;
69207;SDS011;56321;47.662;8.878;2023-04-10T01:20:04;10.23;;;4.18;;
69207;SDS011;56321;47.662;8.878;2023-04-10T01:28:06;9.45;;;3.80;;
69207;SDS011;56321;47.662;8.878;2023-04-10T01:30:51;10.05;;;4.20;;
69207;SDS011;56321;47.662;8.878;2023-04-10T01:33:20;9.82;;;4.03;;
69207;SDS011;56321;47.662;8.878;2023-04-10T01:35:48;10.35;;;4.18;;
69207;SDS011;56321;47.662;8.878;2023-04-10T01:38:16;10.83;;;4.20;;
69207;SDS011;56321;47.662;8.878;2023-04-10T01:40:43;10.07;;;3.90;;
69207;SDS011;56321;47.662;8.878;2023-04-10T01:43:14;9.82;;;4.18;;
69207;SDS011;56321;47.662;8.878;2023-04-10T01:45:40;10.23;;;4.10;;
69207;SDS011;56321;47.662;8.878;2023-04-10T01:48:07;9.90;;;4.25;;
69207;SDS011;56321;47.662;8.878;2023-04-10T01:50:33;10.63;;;4.17;;
69207;SDS011;56321;47.662;8.878;2023-04-10T01:52:59;10.45;;;4.90;;
69207;SDS011;56321;47.662;8.878;2023-04-10T01:55:28;10.05;;;3.85;;
69207;SDS011;56321;47.662;8.878;2023-04-10T01:57:54;10.20;;;3.90;;
69207;SDS011;56321;47.662;8.878;2023-04-10T02:00:20;9.32;;;3.83;;
69207;SDS011;56321;47.662;8.878;2023-04-10T02:02:46;9.07;;;3.50;;
69207;SDS011;56321;47.662;8.878;2023-04-10T02:05:11;9.85;;;3.78;;
69207;SDS011;56321;47.662;8.878;2023-04-10T02:07:53;9.57;;;3.80;;
69207;SDS011;56321;47.662;8.878;2023-04-10T02:10:32;10.25;;;4.35;;
69207;SDS011;56321;47.662;8.878;2023-04-10T02:13:05;9.30;;;4.15;;
69207;SDS011;56321;47.662;8.878;2023-04-10T02:15:34;9.70;;;3.97;;
69207;SDS011;56321;47.662;8.878;2023-04-10T02:18:01;9.05;;;3.63;;
69207;SDS011;56321;47.662;8.878;2023-04-10T02:20:30;9.53;;;3.60;;
69207;SDS011;56321;47.662;8.878;2023-04-10T02:22:56;9.95;;;4.20;;
69207;SDS011;56321;47.662;8.878;2023-04-10T02:25:26;9.73;;;3.92;;
69207;SDS011;56321;47.662;8.878;2023-04-10T02:27:51;10.23;;;4.20;;
69207;SDS011;56321;47.662;8.878;2023-04-10T02:30:16;10.07;;;4.27;;
69207;SDS011;56321;47.662;8.878;2023-04-10T02:32:42;10.43;;;4.37;;
69207;SDS011;56321;47.662;8.878;2023-04-10T02:35:08;10.65;;;4.50;;
69207;SDS011;56321;47.662;8.878;2023-04-10T02:37:33;11.07;;;4.33;;
69207;SDS011;56321;47.662;8.878;2023-04-10T02:39:59;10.48;;;4.20;;
69207;SDS011;56321;47.662;8.878;2023-04-10T02:42:25;10.03;;;4.00;;
69207;SDS011;56321;47.662;8.878;2023-04-10T02:44:51;10.02;;;4.13;;
69207;SDS011;56321;47.662;8.878;2023-04-10T02:47:16;10.97;;;4.33;;
69207;SDS011;56321;47.662;8.878;2023-04-10T02:49:42;10.77;;;4.60;;
69207;SDS011;56321;47.662;8.878;2023-04-10T02:52:08;9.47;;;4.10;;
69207;SDS011;56321;47.662;8.878;2023-04-10T02:54:33;10.77;;;4.40;;
69207;SDS011;56321;47.662;8.878;2023-04-10T02:56:58;10.17;;;4.53;;
69207;SDS011;56321;47.662;8.878;2023-04-10T02:59:24;9.67;;;3.97;;
69207;SDS011;56321;47.662;8.878;2023-04-10T03:01:49;10.02;;;4.20;;
69207;SDS011;56321;47.662;8.878;2023-04-10T03:04:16;10.30;;;4.17;;
69207;SDS011;56321;47.662;8.878;2023-04-10T03:06:42;11.48;;;4.50;;
69207;SDS011;56321;47.662;8.878;2023-04-10T03:09:07;10.70;;;4.30;;
69207;SDS011;56321;47.662;8.878;2023-04-10T03:11:32;9.70;;;4.10;;
69207;SDS011;56321;47.662;8.878;2023-04-10T03:13:58;10.57;;;4.22;;
69207;SDS011;56321;47.662;8.878;2023-04-10T03:16:23;9.90;;;4.20;;
69207;SDS011;56321;47.662;8.878;2023-04-10T03:18:48;9.87;;;3.90;;
69207;SDS011;56321;47.662;8.878;2023-04-10T03:21:14;9.97;;;4.03;;
69207;SDS011;56321;47.662;8.878;2023-04-10T03:23:39;9.70;;;4.07;;
69207;SDS011;56321;47.662;8.878;2023-04-10T03:26:05;10.47;;;4.10;;
69207;SDS011;56321;47.662;8.878;2023-04-10T03:28:30;10.30;;;4.20;;
69207;SDS011;56321;47.662;8.878;2023-04-10T03:30:57;9.73;;;4.10;;
69207;SDS011;56321;47.662;8.878;2023-04-10T03:33:23;10.03;;;3.87;;
69207;SDS011;56321;47.662;8.878;2023-04-10T03:35:48;9.97;;;3.97;;
69207;SDS011;56321;47.662;8.878;2023-04-10T03:38:14;9.85;;;4.13;;
69207;SDS011;56321;47.662;8.878;2023-04-10T03:40:39;9.93;;;4.00;;
69207;SDS011;56321;47.662;8.878;2023-04-10T03:43:05;10.73;;;4.40;;
69207;SDS011;56321;47.662;8.878;2023-04-10T03:45:30;10.40;;;4.47;;
69207;SDS011;56321;47.662;8.878;2023-04-10T03:47:55;10.27;;;4.05;;
69207;SDS011;56321;47.662;8.878;2023-04-10T03:50:21;10.03;;;3.97;;
69207;SDS011;56321;47.662;8.878;2023-04-10T03:52:46;10.63;;;4.13;;
69207;SDS011;56321;47.662;8.878;2023-04-10T03:55:13;10.35;;;4.20;;
69207;SDS011;56321;47.662;8.878;2023-04-10T03:57:42;10.32;;;4.45;;
69207;SDS011;56321;47.662;8.878;2023-04-10T04:00:09;10.13;;;4.07;;
69207;SDS011;56321;47.662;8.878;2023-04-10T04:02:35;10.00;;;4.40;;
69207;SDS011;56321;47.662;8.878;2023-04-10T04:05:00;9.67;;;4.10;;
69207;SDS011;56321;47.662;8.878;2023-04-10T04:07:26;10.13;;;3.80;;
69207;SDS011;56321;47.662;8.878;2023-04-10T04:09:51;9.60;;;4.03;;
69207;SDS011;56321;47.662;8.878;2023-04-10T04:12:16;9.77;;;4.13;;
69207;SDS011;56321;47.662;8.878;2023-04-10T04:14:42;9.53;;;3.93;;
69207;SDS011;56321;47.662;8.878;2023-04-10T04:17:08;9.95;;;4.13;;
69207;SDS011;56321;47.662;8.878;2023-04-10T04:19:34;11.33;;;4.47;;
69207;SDS011;56321;47.662;8.878;2023-04-10T04:21:59;9.90;;;4.17;;
69207;SDS011;56321;47.662;8.878;2023-04-10T04:24:25;10.57;;;4.53;;
69207;SDS011;56321;47.662;8.878;2023-04-10T04:26:50;10.90;;;4.30;;
69207;SDS011;56321;47.662;8.878;2023-04-10T04:29:15;10.13;;;4.70;;
69207;SDS011;56321;47.662;8.878;2023-04-10T04:31:41;9.80;;;4.17;;
69207;SDS011;56321;47.662;8.878;2023-04-10T04:34:06;10.55;;;4.22;;
69207;SDS011;56321;47.662;8.878;2023-04-10T04:36:32;10.07;;;4.07;;
69207;SDS011;56321;47.662;8.878;2023-04-10T04:38:57;9.70;;;3.80;;
69207;SDS011;56321;47.662;8.878;2023-04-10T04:41:22;10.23;;;4.43;;
69207;SDS011;56321;47.662;8.878;2023-04-10T04:43:48;10.20;;;4.37;;
69207;SDS011;56321;47.662;8.878;2023-04-10T04:46:13;10.20;;;4.20;;
69207;SDS011;56321;47.662;8.878;2023-04-10T04:48:38;9.97;;;4.13;;
69207;SDS011;56321;47.662;8.878;2023-04-10T04:51:07;10.53;;;4.27;;
69207;SDS011;56321;47.662;8.878;2023-04-10T04:53:32;9.23;;;3.80;;
69207;SDS011;56321;47.662;8.878;2023-04-10T04:55:57;10.27;;;4.00;;
69207;SDS011;56321;47.662;8.878;2023-04-10T04:58:22;10.47;;;4.27;;
69207;SDS011;56321;47.662;8.878;2023-04-10T05:00:48;8.90;;;3.70;;
69207;SDS011;56321;47.662;8.878;2023-04-10T05:03:15;11.32;;;4.90;;
69207;SDS011;56321;47.662;8.878;2023-04-10T05:05:41;10.63;;;4.77;;
69207;SDS011;56321;47.662;8.878;2023-04-10T05:08:06;10.77;;;5.13;;
69207;SDS011;56321;47.662;8.878;2023-04-10T05:10:32;11.77;;;4.93;;
69207;SDS011;56321;47.662;8.878;2023-04-10T05:12:57;10.80;;;4.60;;
69207;SDS011;56321;47.662;8.878;2023-04-10T05:15:22;10.90;;;4.80;;
69207;SDS011;56321;47.662;8.878;2023-04-10T05:17:48;11.97;;;4.47;;
69207;SDS011;56321;47.662;8.878;2023-04-10T05:20:15;11.15;;;4.70;;
69207;SDS011;56321;47.662;8.878;2023-04-10T05:22:40;11.10;;;4.20;;
69207;SDS011;56321;47.662;8.878;2023-04-10T05:25:06;10.10;;;4.03;;
69207;SDS011;56321;47.662;8.878;2023-04-10T05:27:31;10.43;;;4.40;;
69207;SDS011;56321;47.662;8.878;2023-04-10T05:29:56;10.37;;;4.77;;
69207;SDS011;56321;47.662;8.878;2023-04-10T05:32:22;10.57;;;4.57;;
69207;SDS011;56321;47.662;8.878;2023-04-10T05:34:47;10.27;;;4.13;;
69207;SDS011;56321;47.662;8.878;2023-04-10T05:37:12;10.27;;;4.20;;
69207;SDS011;56321;47.662;8.878;2023-04-10T05:39:38;10.97;;;4.40;;
69207;SDS011;56321;47.662;8.878;2023-04-10T05:42:03;12.60;;;5.33;;
69207;SDS011;56321;47.662;8.878;2023-04-10T05:44:29;11.60;;;5.27;;
69207;SDS011;56321;47.662;8.878;2023-04-10T05:46:54;11.10;;;5.05;;
69207;SDS011;56321;47.662;8.878;2023-04-10T05:49:20;11.10;;;5.03;;
69207;SDS011;56321;47.662;8.878;2023-04-10T05:51:45;12.33;;;5.40;;
69207;SDS011;56321;47.662;8.878;2023-04-10T05:54:14;12.07;;;5.28;;
69207;SDS011;56321;47.662;8.878;2023-04-10T05:56:42;12.48;;;5.55;;
69207;SDS011;56321;47.662;8.878;2023-04-10T05:59:08;13.90;;;6.00;;
69207;SDS011;56321;47.662;8.878;2023-04-10T06:01:33;14.67;;;6.03;;
69207;SDS011;56321;47.662;8.878;2023-04-10T06:03:58;12.73;;;6.23;;
69207;SDS011;56321;47.662;8.878;2023-04-10T06:06:24;13.80;;;6.57;;
69207;SDS011;56321;47.662;8.878;2023-04-10T06:08:50;13.82;;;6.63;;
69207;SDS011;56321;47.662;8.878;2023-04-10T06:11:16;15.60;;;8.57;;
69207;SDS011;56321;47.662;8.878;2023-04-10T06:13:41;13.37;;;6.47;;
69207;SDS011;56321;47.662;8.878;2023-04-10T06:16:07;12.40;;;6.13;;
69207;SDS011;56321;47.662;8.878;2023-04-10T06:18:32;12.23;;;5.85;;
69207;SDS011;56321;47.662;8.878;2023-04-10T06:20:58;13.07;;;5.87;;
69207;SDS011;56321;47.662;8.878;2023-04-10T06:23:25;13.30;;;6.40;;
69207;SDS011;56321;47.662;8.878;2023-04-10T06:25:54;12.50;;;5.82;;
69207;SDS011;56321;47.662;8.878;2023-04-10T06:28:20;12.00;;;6.07;;
69207;SDS011;56321;47.662;8.878;2023-04-10T06:30:45;12.50;;;5.57;;
69207;SDS011;56321;47.662;8.878;2023-04-10T06:33:10;13.20;;;6.10;;
69207;SDS011;56321;47.662;8.878;2023-04-10T06:35:36;12.90;;;6.03;;
69207;SDS011;56321;47.662;8.878;2023-04-10T06:38:01;12.47;;;5.70;;
69207;SDS011;56321;47.662;8.878;2023-04-10T06:40:27;12.35;;;6.00;;
69207;SDS011;56321;47.662;8.878;2023-04-10T06:42:53;13.03;;;5.73;;
69207;SDS011;56321;47.662;8.878;2023-04-10T06:45:19;12.88;;;5.93;;
69207;SDS011;56321;47.662;8.878;2023-04-10T06:47:46;11.98;;;6.07;;
69207;SDS011;56321;47.662;8.878;2023-04-10T06:50:11;12.20;;;6.07;;
69207;SDS011;56321;47.662;8.878;2023-04-10T06:52:36;12.60;;;5.87;;
69207;SDS011;56321;47.662;8.878;2023-04-10T06:55:02;12.83;;;6.23;;
69207;SDS011;56321;47.662;8.878;2023-04-10T06:57:27;12.95;;;5.70;;
69207;SDS011;56321;47.662;8.878;2023-04-10T06:59:53;13.33;;;5.73;;
69207;SDS011;56321;47.662;8.878;2023-04-10T07:02:18;14.20;;;6.07;;
69207;SDS011;56321;47.662;8.878;2023-04-10T07:04:44;13.35;;;6.18;;
69207;SDS011;56321;47.662;8.878;2023-04-10T07:07:09;11.90;;;5.60;;
69207;SDS011;56321;47.662;8.878;2023-04-10T07:09:37;13.77;;;6.15;;
69207;SDS011;56321;47.662;8.878;2023-04-10T07:12:03;14.83;;;7.77;;
69207;SDS011;56321;47.662;8.878;2023-04-10T07:14:28;13.87;;;6.60;;
69207;SDS011;56321;47.662;8.878;2023-04-10T07:16:53;15.63;;;9.57;;
69207;SDS011;56321;47.662;8.878;2023-04-10T07:19:19;13.27;;;6.13;;
69207;SDS011;56321;47.662;8.878;2023-04-10T07:21:45;13.00;;;6.00;;
69207;SDS011;56321;47.662;8.878;2023-04-10T07:24:14;12.85;;;6.07;;
69207;SDS011;56321;47.662;8.878;2023-04-10T07:26:40;12.98;;;6.10;;
69207;SDS011;56321;47.662;8.878;2023-04-10T07:29:05;13.37;;;6.30;;
69207;SDS011;56321;47.662;8.878;2023-04-10T07:31:30;12.27;;;5.80;;
69207;SDS011;56321;47.662;8.878;2023-04-10T07:33:56;12.57;;;5.93;;
69207;SDS011;56321;47.662;8.878;2023-04-10T07:36:21;12.57;;;6.20;;
69207;SDS011;56321;47.662;8.878;2023-04-10T07:38:46;13.13;;;6.10;;
69207;SDS011;56321;47.662;8.878;2023-04-10T07:41:12;12.23;;;5.65;;
69207;SDS011;56321;47.662;8.878;2023-04-10T07:43:38;12.07;;;5.80;;
69207;SDS011;56321;47.662;8.878;2023-04-10T07:46:03;14.07;;;6.93;;
69207;SDS011;56321;47.662;8.878;2023-04-10T07:48:29;14.10;;;6.32;;
69207;SDS011;56321;47.662;8.878;2023-04-10T07:50:54;13.53;;;6.00;;
69207;SDS011;56321;47.662;8.878;2023-04-10T07:53:20;11.95;;;5.68;;
69207;SDS011;56321;47.662;8.878;2023-04-10T07:55:45;12.37;;;6.03;;
69207;SDS011;56321;47.662;8.878;2023-04-10T07:58:13;12.00;;;5.82;;
69207;SDS011;56321;47.662;8.878;2023-04-10T08:00:39;12.07;;;5.80;;
69207;SDS011;56321;47.662;8.878;2023-04-10T08:03:04;12.20;;;5.78;;
69207;SDS011;56321;47.662;8.878;2023-04-10T08:05:30;11.30;;;5.70;;
69207;SDS011;56321;47.662;8.878;2023-04-10T08:07:56;12.93;;;5.60;;
69207;SDS011;56321;47.662;8.878;2023-04-10T08:10:21;11.77;;;5.68;;
69207;SDS011;56321;47.662;8.878;2023-04-10T08:12:46;12.70;;;6.43;;
69207;SDS011;56321;47.662;8.878;2023-04-10T08:15:12;11.10;;;5.57;;
69207;SDS011;56321;47.662;8.878;2023-04-10T08:17:37;11.13;;;5.70;;
69207;SDS011;56321;47.662;8.878;2023-04-10T08:20:03;12.37;;;5.80;;
69207;SDS011;56321;47.662;8.878;2023-04-10T08:22:29;11.68;;;5.45;;
69207;SDS011;56321;47.662;8.878;2023-04-10T08:24:54;12.50;;;6.30;;
69207;SDS011;56321;47.662;8.878;2023-04-10T08:27:19;11.40;;;5.73;;
69207;SDS011;56321;47.662;8.878;2023-04-10T08:29:45;11.25;;;5.40;;
69207;SDS011;56321;47.662;8.878;2023-04-10T08:32:10;11.37;;;5.30;;
69207;SDS011;56321;47.662;8.878;2023-04-10T08:34:35;10.30;;;5.20;;
69207;SDS011;56321;47.662;8.878;2023-04-10T08:37:04;10.50;;;4.93;;
69207;SDS011;56321;47.662;8.878;2023-04-10T08:39:30;10.40;;;5.00;;
69207;SDS011;56321;47.662;8.878;2023-04-10T08:41:55;10.63;;;5.03;;
69207;SDS011;56321;47.662;8.878;2023-04-10T08:44:21;10.73;;;4.97;;
69207;SDS011;56321;47.662;8.878;2023-04-10T08:46:46;11.25;;;5.30;;
69207;SDS011;56321;47.662;8.878;2023-04-10T08:49:16;9.70;;;4.80;;
69207;SDS011;56321;47.662;8.878;2023-04-10T08:51:54;9.93;;;4.60;;
69207;SDS011;56321;47.662;8.878;2023-04-10T08:54:27;9.30;;;4.72;;
69207;SDS011;56321;47.662;8.878;2023-04-10T08:56:54;9.27;;;4.25;;
69207;SDS011;56321;47.662;8.878;2023-04-10T08:59:20;9.98;;;4.80;;
69207;SDS011;56321;47.662;8.878;2023-04-10T09:01:46;9.13;;;4.00;;
69207;SDS011;56321;47.662;8.878;2023-04-10T09:04:12;10.48;;;4.13;;
69207;SDS011;56321;47.662;8.878;2023-04-10T09:06:38;9.07;;;4.10;;
69207;SDS011;56321;47.662;8.878;2023-04-10T09:09:07;8.65;;;3.80;;
69207;SDS011;56321;47.662;8.878;2023-04-10T09:14:19;7.38;;;3.67;;
69207;SDS011;56321;47.662;8.878;2023-04-10T09:16:46;9.00;;;4.20;;
69207;SDS011;56321;47.662;8.878;2023-04-10T09:19:11;7.82;;;3.65;;
69207;SDS011;56321;47.662;8.878;2023-04-10T09:21:36;8.33;;;4.03;;
69207;SDS011;56321;47.662;8.878;2023-04-10T09:24:02;8.80;;;4.30;;
69207;SDS011;56321;47.662;8.878;2023-04-10T09:26:28;9.07;;;4.27;;
69207;SDS011;56321;47.662;8.878;2023-04-10T09:28:59;8.50;;;4.30;;
69207;SDS011;56321;47.662;8.878;2023-04-10T09:31:32;9.23;;;4.40;;
69207;SDS011;56321;47.662;8.878;2023-04-10T09:34:12;8.63;;;4.22;;
69207;SDS011;56321;47.662;8.878;2023-04-10T09:36:38;8.57;;;4.10;;
69207;SDS011;56321;47.662;8.878;2023-04-10T09:39:05;8.63;;;4.25;;
69207;SDS011;56321;47.662;8.878;2023-04-10T09:41:32;8.88;;;4.45;;
69207;SDS011;56321;47.662;8.878;2023-04-10T09:44:07;8.80;;;4.23;;
69207;SDS011;56321;47.662;8.878;2023-04-10T09:46:34;8.35;;;4.15;;
69207;SDS011;56321;47.662;8.878;2023-04-10T09:48:59;7.90;;;4.20;;
69207;SDS011;56321;47.662;8.878;2023-04-10T09:51:31;7.78;;;4.03;;
69207;SDS011;56321;47.662;8.878;2023-04-10T09:53:59;8.05;;;4.15;;
69207;SDS011;56321;47.662;8.878;2023-04-10T09:56:25;8.60;;;4.43;;
69207;SDS011;56321;47.662;8.878;2023-04-10T09:58:52;8.20;;;3.97;;
69207;SDS011;56321;47.662;8.878;2023-04-10T10:01:21;7.97;;;3.95;;
69207;SDS011;56321;47.662;8.878;2023-04-10T10:03:46;7.78;;;3.97;;
69207;SDS011;56321;47.662;8.878;2023-04-10T10:06:12;7.57;;;3.70;;
69207;SDS011;56321;47.662;8.878;2023-04-10T10:08:38;7.10;;;3.60;;
69207;SDS011;56321;47.662;8.878;2023-04-10T10:11:03;7.20;;;3.38;;
69207;SDS011;56321;47.662;8.878;2023-04-10T10:13:40;7.22;;;3.40;;
69207;SDS011;56321;47.662;8.878;2023-04-10T10:16:16;6.85;;;3.20;;
69207;SDS011;56321;47.662;8.878;2023-04-10T10:19:03;6.33;;;2.93;;
69207;SDS011;56321;47.662;8.878;2023-04-10T10:21:34;6.78;;;2.97;;
69207;SDS011;56321;47.662;8.878;2023-04-10T10:24:01;7.30;;;3.50;;
69207;SDS011;56321;47.662;8.878;2023-04-10T10:26:27;6.78;;;3.20;;
69207;SDS011;56321;47.662;8.878;2023-04-10T10:28:54;6.63;;;2.70;;
69207;SDS011;56321;47.662;8.878;2023-04-10T10:31:21;8.20;;;3.53;;
69207;SDS011;56321;47.662;8.878;2023-04-10T10:33:50;6.20;;;2.72;;
69207;SDS011;56321;47.662;8.878;2023-04-10T10:36:16;6.43;;;2.95;;
69207;SDS011;56321;47.662;8.878;2023-04-10T10:38:47;6.10;;;2.65;;
69207;SDS011;56321;47.662;8.878;2023-04-10T10:41:36;5.70;;;2.85;;
69207;SDS011;56321;47.662;8.878;2023-04-10T10:44:14;6.53;;;2.77;;
69207;SDS011;56321;47.662;8.878;2023-04-10T10:46:47;6.25;;;2.85;;
69207;SDS011;56321;47.662;8.878;2023-04-10T10:57:52;6.00;;;2.73;;
69207;SDS011;56321;47.662;8.878;2023-04-10T11:00:18;6.78;;;3.30;;
69207;SDS011;56321;47.662;8.878;2023-04-10T11:02:44;6.82;;;3.22;;
69207;SDS011;56321;47.662;8.878;2023-04-10T11:05:10;6.32;;;3.20;;
69207;SDS011;56321;47.662;8.878;2023-04-10T11:08:13;7.17;;;3.73;;
69207;SDS011;56321;47.662;8.878;2023-04-10T11:11:12;7.30;;;3.83;;
69207;SDS011;56321;47.662;8.878;2023-04-10T11:13:30;6.90;;;3.60;;
69207;SDS011;56321;47.662;8.878;2023-04-10T11:15:56;7.10;;;3.60;;
69207;SDS011;56321;47.662;8.878;2023-04-10T11:21:15;6.30;;;3.30;;
69207;SDS011;56321;47.662;8.878;2023-04-10T11:29:01;7.00;;;3.53;;
69207;SDS011;56321;47.662;8.878;2023-04-10T11:31:27;6.90;;;3.70;;
69207;SDS011;56321;47.662;8.878;2023-04-10T11:36:23;7.32;;;4.10;;
69207;SDS011;56321;47.662;8.878;2023-04-10T11:39:08;6.55;;;3.72;;
69207;SDS011;56321;47.662;8.878;2023-04-10T11:41:38;6.53;;;3.65;;
69207;SDS011;56321;47.662;8.878;2023-04-10T11:44:06;6.33;;;3.17;;
69207;SDS011;56321;47.662;8.878;2023-04-10T11:46:35;6.40;;;3.25;;
69207;SDS011;56321;47.662;8.878;2023-04-10T11:49:03;7.20;;;3.50;;
69207;SDS011;56321;47.662;8.878;2023-04-10T11:51:29;6.45;;;3.10;;
69207;SDS011;56321;47.662;8.878;2023-04-10T11:54:08;6.35;;;3.10;;
69207;SDS011;56321;47.662;8.878;2023-04-10T11:56:34;6.50;;;3.20;;
69207;SDS011;56321;47.662;8.878;2023-04-10T11:59:01;6.00;;;2.97;;
69207;SDS011;56321;47.662;8.878;2023-04-10T12:01:31;7.13;;;3.58;;
69207;SDS011;56321;47.662;8.878;2023-04-10T12:03:57;6.63;;;3.33;;
69207;SDS011;56321;47.662;8.878;2023-04-10T12:06:22;6.63;;;3.70;;
69207;SDS011;56321;47.662;8.878;2023-04-10T12:08:48;6.90;;;3.33;;
69207;SDS011;56321;47.662;8.878;2023-04-10T12:11:16;6.90;;;3.80;;
69207;SDS011;56321;47.662;8.878;2023-04-10T12:13:45;6.38;;;3.25;;
69207;SDS011;56321;47.662;8.878;2023-04-10T12:16:11;6.70;;;3.78;;
69207;SDS011;56321;47.662;8.878;2023-04-10T12:18:37;6.87;;;3.47;;
69207;SDS011;56321;47.662;8.878;2023-04-10T12:21:03;6.93;;;3.20;;
69207;SDS011;56321;47.662;8.878;2023-04-10T12:23:29;6.90;;;3.40;;
69207;SDS011;56321;47.662;8.878;2023-04-10T12:28:49;6.40;;;3.13;;
69207;SDS011;56321;47.662;8.878;2023-04-10T12:31:16;6.53;;;3.20;;
69207;SDS011;56321;47.662;8.878;2023-04-10T12:33:44;6.67;;;3.20;;
69207;SDS011;56321;47.662;8.878;2023-04-10T12:36:20;8.48;;;3.35;;
69207;SDS011;56321;47.662;8.878;2023-04-10T12:38:46;6.47;;;3.28;;
69207;SDS011;56321;47.662;8.878;2023-04-10T12:41:11;6.50;;;3.00;;
69207;SDS011;56321;47.662;8.878;2023-04-10T12:43:40;6.70;;;3.10;;
69207;SDS011;56321;47.662;8.878;2023-04-10T12:46:07;6.40;;;3.10;;
69207;SDS011;56321;47.662;8.878;2023-04-10T12:48:34;6.45;;;3.17;;
69207;SDS011;56321;47.662;8.878;2023-04-10T12:51:00;6.10;;;2.67;;
69207;SDS011;56321;47.662;8.878;2023-04-10T12:53:26;7.00;;;3.10;;
69207;SDS011;56321;47.662;8.878;2023-04-10T12:55:55;6.60;;;3.00;;
69207;SDS011;56321;47.662;8.878;2023-04-10T12:58:23;6.28;;;2.90;;
69207;SDS011;56321;47.662;8.878;2023-04-10T13:00:52;5.70;;;2.35;;
69207;SDS011;56321;47.662;8.878;2023-04-10T13:03:19;5.60;;;2.30;;
69207;SDS011;56321;47.662;8.878;2023-04-10T13:05:45;5.90;;;2.43;;
69207;SDS011;56321;47.662;8.878;2023-04-10T13:08:11;5.53;;;2.35;;
69207;SDS011;56321;47.662;8.878;2023-04-10T13:10:36;5.60;;;2.20;;
69207;SDS011;56321;47.662;8.878;2023-04-10T13:13:02;5.55;;;2.20;;
69207;SDS011;56321;47.662;8.878;2023-04-10T13:15:28;5.80;;;2.40;;
69207;SDS011;56321;47.662;8.878;2023-04-10T13:17:53;6.40;;;2.60;;
69207;SDS011;56321;47.662;8.878;2023-04-10T13:20:19;7.13;;;2.63;;
69207;SDS011;56321;47.662;8.878;2023-04-10T13:22:45;5.80;;;2.50;;
69207;SDS011;56321;47.662;8.878;2023-04-10T13:25:10;5.70;;;2.50;;
69207;SDS011;56321;47.662;8.878;2023-04-10T13:27:35;5.70;;;2.23;;
69207;SDS011;56321;47.662;8.878;2023-04-10T13:30:01;5.27;;;2.30;;
69207;SDS011;56321;47.662;8.878;2023-04-10T13:32:26;6.00;;;2.40;;
69207;SDS011;56321;47.662;8.878;2023-04-10T13:34:51;5.90;;;2.30;;
69207;SDS011;56321;47.662;8.878;2023-04-10T13:37:18;6.00;;;2.03;;
69207;SDS011;56321;47.662;8.878;2023-04-10T13:39:44;5.80;;;2.30;;
69207;SDS011;56321;47.662;8.878;2023-04-10T13:42:09;6.13;;;2.17;;
69207;SDS011;56321;47.662;8.878;2023-04-10T13:44:35;6.38;;;2.20;;
69207;SDS011;56321;47.662;8.878;2023-04-10T13:47:00;5.53;;;2.20;;
69207;SDS011;56321;47.662;8.878;2023-04-10T13:49:26;5.00;;;1.80;;
69207;SDS011;56321;47.662;8.878;2023-04-10T13:51:54;5.32;;;2.00;;
69207;SDS011;56321;47.662;8.878;2023-04-10T13:54:20;5.57;;;1.90;;
69207;SDS011;56321;47.662;8.878;2023-04-10T13:56:45;5.20;;;2.10;;
69207;SDS011;56321;47.662;8.878;2023-04-10T13:59:11;5.47;;;2.10;;
69207;SDS011;56321;47.662;8.878;2023-04-10T14:01:36;7.17;;;2.27;;
69207;SDS011;56321;47.662;8.878;2023-04-10T14:04:01;5.70;;;2.17;;
69207;SDS011;56321;47.662;8.878;2023-04-10T14:06:27;5.47;;;2.40;;
69207;SDS011;56321;47.662;8.878;2023-04-10T14:08:52;5.33;;;1.93;;
69207;SDS011;56321;47.662;8.878;2023-04-10T14:11:18;5.40;;;1.97;;
69207;SDS011;56321;47.662;8.878;2023-04-10T14:13:44;6.18;;;2.20;;
69207;SDS011;56321;47.662;8.878;2023-04-10T14:16:09;5.10;;;1.77;;
69207;SDS011;56321;47.662;8.878;2023-04-10T14:18:35;5.22;;;1.95;;
69207;SDS011;56321;47.662;8.878;2023-04-10T14:21:01;5.10;;;2.10;;
69207;SDS011;56321;47.662;8.878;2023-04-10T14:23:26;5.68;;;2.22;;
69207;SDS011;56321;47.662;8.878;2023-04-10T14:25:52;5.50;;;2.17;;
69207;SDS011;56321;47.662;8.878;2023-04-10T14:28:17;5.67;;;1.93;;
69207;SDS011;56321;47.662;8.878;2023-04-10T14:30:43;4.73;;;1.73;;
69207;SDS011;56321;47.662;8.878;2023-04-10T14:33:09;5.13;;;1.90;;
69207;SDS011;56321;47.662;8.878;2023-04-10T14:35:34;5.10;;;1.90;;
69207;SDS011;56321;47.662;8.878;2023-04-10T14:38:00;4.97;;;1.80;;
69207;SDS011;56321;47.662;8.878;2023-04-10T14:40:26;5.10;;;1.75;;
69207;SDS011;56321;47.662;8.878;2023-04-10T14:42:51;5.47;;;2.00;;
69207;SDS011;56321;47.662;8.878;2023-04-10T14:45:17;6.50;;;2.83;;
69207;SDS011;56321;47.662;8.878;2023-04-10T14:47:43;5.67;;;2.40;;
69207;SDS011;56321;47.662;8.878;2023-04-10T14:50:09;5.63;;;1.77;;
69207;SDS011;56321;47.662;8.878;2023-04-10T14:52:34;4.93;;;1.63;;
69207;SDS011;56321;47.662;8.878;2023-04-10T14:55:00;5.50;;;1.80;;
69207;SDS011;56321;47.662;8.878;2023-04-10T14:57:25;4.87;;;1.67;;
69207;SDS011;56321;47.662;8.878;2023-04-10T14:59:51;4.83;;;1.60;;
69207;SDS011;56321;47.662;8.878;2023-04-10T15:02:16;4.77;;;1.53;;
69207;SDS011;56321;47.662;8.878;2023-04-10T15:04:41;5.00;;;1.70;;
69207;SDS011;56321;47.662;8.878;2023-04-10T15:07:06;5.40;;;2.10;;
69207;SDS011;56321;47.662;8.878;2023-04-10T15:09:32;5.30;;;1.80;;
69207;SDS011;56321;47.662;8.878;2023-04-10T15:11:57;5.25;;;1.90;;
69207;SDS011;56321;47.662;8.878;2023-04-10T15:14:22;5.17;;;2.00;;
69207;SDS011;56321;47.662;8.878;2023-04-10T15:16:48;5.80;;;2.13;;